createdAt,value
2023-05-15T00:01:20.903Z,3.80
2023-05-15T00:03:48.358Z,4.23
2023-05-15T00:06:15.275Z,3.83
2023-05-15T00:08:42.119Z,3.50
2023-05-15T00:11:09.003Z,4.03
2023-05-15T00:13:35.897Z,4.40
2023-05-15T00:16:02.930Z,4.10
2023-05-15T00:18:29.805Z,3.97
2023-05-15T00:20:56.726Z,3.50
2023-05-15T00:23:23.602Z,4.00
2023-05-15T00:25:50.623Z,4.00
2023-05-15T00:28:17.433Z,3.67
2023-05-15T00:30:44.268Z,3.80
2023-05-15T00:33:11.121Z,3.60
2023-05-15T00:35:38.214Z,4.17
2023-05-15T00:38:05.097Z,4.27
2023-05-15T00:40:32.928Z,4.00
2023-05-15T00:43:00.721Z,4.00
2023-05-15T00:45:29.032Z,4.00
2023-05-15T00:47:57.735Z,4.17
2023-05-15T00:50:25.565Z,4.00
2023-05-15T00:52:53.041Z,4.10
2023-05-15T00:55:20.052Z,4.23
2023-05-15T00:57:48.936Z,3.77
2023-05-15T01:00:18.458Z,3.57
2023-05-15T01:02:46.422Z,4.20
2023-05-15T01:05:13.577Z,4.37
2023-05-15T01:08:09.748Z,4.07
2023-05-15T01:10:37.003Z,4.53
2023-05-15T01:13:04.845Z,4.50
2023-05-15T01:15:33.203Z,4.17
2023-05-15T01:18:00.060Z,4.47
2023-05-15T01:20:27.660Z,4.23
2023-05-15T01:23:15.692Z,4.20
2023-05-15T01:25:54.629Z,4.93
2023-05-15T01:28:32.148Z,3.97
2023-05-15T01:31:06.161Z,4.43
2023-05-15T01:33:40.866Z,4.60
2023-05-15T01:36:26.860Z,5.33
2023-05-15T01:38:56.897Z,4.80
2023-05-15T01:41:33.319Z,5.57
2023-05-15T01:44:06.753Z,5.10
2023-05-15T01:46:38.476Z,4.70
2023-05-15T01:49:09.776Z,5.27
2023-05-15T01:51:38.615Z,5.60
2023-05-15T01:54:08.871Z,5.00
2023-05-15T01:56:37.960Z,5.73
2023-05-15T01:59:05.585Z,5.80
2023-05-15T02:01:37.704Z,5.83
2023-05-15T02:04:05.122Z,5.73
2023-05-15T02:06:33.277Z,4.90
2023-05-15T02:09:03.057Z,5.23
2023-05-15T02:11:30.899Z,5.60
2023-05-15T02:13:58.648Z,5.80
2023-05-15T02:16:25.761Z,6.30
2023-05-15T02:18:53.044Z,6.03
2023-05-15T02:21:20.213Z,6.40
2023-05-15T02:23:47.068Z,6.30
2023-05-15T02:26:33.368Z,6.70
2023-05-15T02:29:22.866Z,6.90
2023-05-15T02:32:11.895Z,6.87
2023-05-15T02:35:12.601Z,6.80
2023-05-15T02:37:41.034Z,7.53
2023-05-15T02:40:13.495Z,6.80
2023-05-15T02:42:42.051Z,7.00
2023-05-15T02:45:10.680Z,8.37
2023-05-15T02:47:38.494Z,7.10
2023-05-15T02:50:06.287Z,7.37
2023-05-15T02:52:36.182Z,7.50
2023-05-15T02:55:03.490Z,7.60
2023-05-15T02:57:30.523Z,7.63
2023-05-15T02:59:57.509Z,7.20
2023-05-15T03:02:24.471Z,7.30
2023-05-15T03:04:51.557Z,7.03
2023-05-15T03:07:18.388Z,7.43
2023-05-15T03:09:45.357Z,7.13
2023-05-15T03:12:12.206Z,7.40
2023-05-15T03:14:39.019Z,6.60
2023-05-15T03:17:05.906Z,8.07
2023-05-15T03:19:32.851Z,7.57
2023-05-15T03:21:59.680Z,7.70
2023-05-15T03:24:26.577Z,7.97
2023-05-15T03:26:53.384Z,7.60
2023-05-15T03:29:20.255Z,7.77
2023-05-15T03:31:47.100Z,7.93
2023-05-15T03:34:13.979Z,8.17
2023-05-15T03:36:41.152Z,8.37
2023-05-15T03:39:08.006Z,8.57
2023-05-15T03:41:34.838Z,8.57
2023-05-15T03:44:01.721Z,9.03
2023-05-15T03:46:29.186Z,8.80
2023-05-15T03:48:56.049Z,9.40
2023-05-15T03:51:24.135Z,9.20
2023-05-15T03:53:54.156Z,9.10
2023-05-15T03:56:23.203Z,9.23
2023-05-15T03:58:50.016Z,10.23
2023-05-15T04:01:16.880Z,10.13
2023-05-15T04:03:43.727Z,9.57
2023-05-15T04:06:10.585Z,10.77
2023-05-15T04:08:38.717Z,11.13
2023-05-15T04:11:06.943Z,10.43
2023-05-15T04:13:33.786Z,10.00
2023-05-15T04:16:01.104Z,10.57
2023-05-15T04:18:28.109Z,10.10
2023-05-15T04:20:54.938Z,10.60
2023-05-15T04:23:21.877Z,10.43
2023-05-15T04:25:48.962Z,9.80
2023-05-15T04:28:16.091Z,10.60
2023-05-15T04:30:42.926Z,9.40
2023-05-15T04:33:09.777Z,9.50
2023-05-15T04:35:36.641Z,10.70
2023-05-15T04:38:03.584Z,11.97
2023-05-15T04:40:30.622Z,12.03
2023-05-15T04:42:57.659Z,10.47
2023-05-15T04:45:25.242Z,10.47
2023-05-15T04:47:52.327Z,10.27
2023-05-15T04:50:19.326Z,9.57
2023-05-15T04:52:46.199Z,11.87
2023-05-15T04:55:13.093Z,11.00
2023-05-15T04:57:39.921Z,10.47
2023-05-15T05:00:13.000Z,10.57
2023-05-15T05:02:40.320Z,10.23
2023-05-15T05:05:08.188Z,9.30
2023-05-15T05:07:35.612Z,9.77
2023-05-15T05:10:04.255Z,9.53
2023-05-15T05:12:31.105Z,9.27
2023-05-15T05:14:57.833Z,9.47
2023-05-15T05:17:24.770Z,8.30
2023-05-15T05:19:51.544Z,9.30
2023-05-15T05:22:18.325Z,8.83
2023-05-15T05:24:45.233Z,9.17
2023-05-15T05:27:12.080Z,8.80
2023-05-15T05:29:39.953Z,8.63
2023-05-15T05:32:08.605Z,9.17
2023-05-15T05:34:35.550Z,9.23
2023-05-15T05:37:02.350Z,8.80
2023-05-15T05:39:29.091Z,9.63
2023-05-15T05:41:55.936Z,10.33
2023-05-15T05:44:22.794Z,9.40
2023-05-15T05:46:49.537Z,9.90
2023-05-15T05:49:16.328Z,9.73
2023-05-15T05:51:45.014Z,9.93
2023-05-15T05:54:11.789Z,9.30
2023-05-15T05:56:38.541Z,9.00
2023-05-15T05:59:06.402Z,9.87
2023-05-15T06:01:33.336Z,9.07
2023-05-15T06:04:00.263Z,9.10
2023-05-15T06:06:27.114Z,9.07
2023-05-15T06:08:55.719Z,9.13
2023-05-15T06:11:25.422Z,9.80
2023-05-15T06:13:52.727Z,9.77
2023-05-15T06:16:19.698Z,10.00
2023-05-15T06:18:46.564Z,10.07
2023-05-15T06:21:13.488Z,9.00
2023-05-15T06:23:40.400Z,9.53
2023-05-15T06:26:07.415Z,9.20
2023-05-15T06:28:34.250Z,9.07
2023-05-15T06:31:01.191Z,8.40
2023-05-15T06:33:28.010Z,8.20
2023-05-15T06:35:55.009Z,8.40
2023-05-15T06:38:21.765Z,7.93
2023-05-15T06:40:48.525Z,8.33
2023-05-15T06:43:15.305Z,7.57
2023-05-15T06:45:42.136Z,7.57
2023-05-15T06:48:08.940Z,7.63
2023-05-15T06:50:35.954Z,7.77
2023-05-15T06:53:03.220Z,8.07
2023-05-15T06:55:29.967Z,6.77
2023-05-15T06:57:56.705Z,7.27
2023-05-15T07:00:23.484Z,7.80
2023-05-15T07:02:50.321Z,7.10
2023-05-15T07:05:17.163Z,7.37
2023-05-15T07:07:44.017Z,7.50
2023-05-15T07:10:11.049Z,7.40
2023-05-15T07:12:37.816Z,7.63
2023-05-15T07:15:05.658Z,7.43
2023-05-15T07:17:33.835Z,7.30
2023-05-15T07:20:00.693Z,7.90
2023-05-15T07:22:29.033Z,7.40
2023-05-15T07:24:55.842Z,7.40
2023-05-15T07:27:22.679Z,7.97
2023-05-15T07:29:49.430Z,7.47
2023-05-15T07:32:16.221Z,7.47
2023-05-15T07:34:43.062Z,7.50
2023-05-15T07:37:10.040Z,7.77
2023-05-15T07:39:36.871Z,7.20
2023-05-15T07:42:03.763Z,7.43
2023-05-15T07:44:30.488Z,7.70
2023-05-15T07:46:58.620Z,7.00
2023-05-15T07:49:25.349Z,6.70
2023-05-15T07:51:52.196Z,6.87
2023-05-15T07:54:18.948Z,7.37
2023-05-15T07:56:45.747Z,7.30
2023-05-15T07:59:12.515Z,6.67
2023-05-15T08:01:39.394Z,7.43
2023-05-15T08:04:09.022Z,7.53
2023-05-15T08:06:38.243Z,6.90
2023-05-15T08:09:05.309Z,6.93
2023-05-15T08:11:32.109Z,6.80
2023-05-15T08:13:58.941Z,6.13
2023-05-15T08:16:25.836Z,6.70
2023-05-15T08:18:55.710Z,6.40
2023-05-15T08:21:22.452Z,6.13
2023-05-15T08:23:49.224Z,6.50
2023-05-15T08:26:15.983Z,6.70
2023-05-15T08:28:42.717Z,6.90
2023-05-15T08:31:09.501Z,6.20
2023-05-15T08:33:36.280Z,6.47
2023-05-15T08:36:03.270Z,6.83
2023-05-15T08:38:30.109Z,6.90
2023-05-15T08:40:58.917Z,6.93
2023-05-15T08:43:26.976Z,7.20
2023-05-15T08:45:54.980Z,7.20
2023-05-15T08:48:26.037Z,6.90
2023-05-15T08:50:53.787Z,6.93
2023-05-15T08:53:21.162Z,7.43
2023-05-15T08:55:48.000Z,6.73
2023-05-15T08:58:16.855Z,7.00
2023-05-15T09:00:43.619Z,7.03
2023-05-15T09:03:15.776Z,6.67
2023-05-15T09:05:42.884Z,7.17
2023-05-15T09:08:10.353Z,6.87
2023-05-15T09:10:37.190Z,6.63
2023-05-15T09:13:05.898Z,6.77
2023-05-15T09:15:33.076Z,7.00
2023-05-15T09:18:01.491Z,6.33
2023-05-15T09:20:37.791Z,6.80
2023-05-15T09:23:06.230Z,6.63
2023-05-15T09:25:44.661Z,6.17
2023-05-15T09:28:28.432Z,7.07
2023-05-15T09:31:05.567Z,6.87
2023-05-15T09:33:35.084Z,6.63
2023-05-15T09:36:03.345Z,7.03
2023-05-15T09:38:33.233Z,6.63
2023-05-15T09:41:06.178Z,7.20
2023-05-15T09:43:40.565Z,6.27
2023-05-15T09:46:08.653Z,6.77
2023-05-15T09:48:36.052Z,6.30
2023-05-15T09:51:04.525Z,6.70
2023-05-15T09:53:32.225Z,6.93
2023-05-15T09:55:59.173Z,6.40
2023-05-15T09:58:25.977Z,6.77
2023-05-15T10:00:52.738Z,7.10
2023-05-15T10:03:20.762Z,7.20
2023-05-15T10:05:47.794Z,6.77
2023-05-15T10:08:17.943Z,7.53
2023-05-15T10:10:45.846Z,6.97
2023-05-15T10:13:12.684Z,7.53
2023-05-15T10:15:40.010Z,7.40
2023-05-15T10:18:08.415Z,8.00
2023-05-15T10:20:35.869Z,7.93
2023-05-15T10:23:05.250Z,7.57
2023-05-15T10:25:46.896Z,7.77
2023-05-15T10:28:15.985Z,7.17
2023-05-15T10:30:43.179Z,6.90
2023-05-15T10:33:11.433Z,7.77
2023-05-15T10:35:39.810Z,7.50
2023-05-15T10:38:07.809Z,7.20
2023-05-15T10:40:37.879Z,7.47
2023-05-15T10:43:05.701Z,8.70
2023-05-15T10:45:34.498Z,7.70
2023-05-15T10:48:02.831Z,8.67
2023-05-15T10:50:29.880Z,7.93
2023-05-15T10:52:57.004Z,7.73
2023-05-15T10:55:24.233Z,6.97
2023-05-15T10:57:51.817Z,7.43
2023-05-15T11:00:33.654Z,7.07
2023-05-15T11:03:01.059Z,7.23
2023-05-15T11:05:28.373Z,6.97
2023-05-15T11:08:18.453Z,7.67
2023-05-15T11:10:45.392Z,8.20
2023-05-15T11:13:12.336Z,7.60
2023-05-15T11:15:43.565Z,7.67
2023-05-15T11:18:10.905Z,7.43
2023-05-15T11:21:04.383Z,7.80
2023-05-15T11:23:39.975Z,7.60
2023-05-15T11:26:07.195Z,7.60
2023-05-15T11:28:43.534Z,7.70
2023-05-15T11:31:10.467Z,7.40
2023-05-15T11:33:39.607Z,7.17
2023-05-15T11:36:07.480Z,7.70
2023-05-15T11:38:40.091Z,7.33
2023-05-15T11:41:18.566Z,7.13
2023-05-15T11:43:45.963Z,6.57
2023-05-15T11:46:14.498Z,6.00
2023-05-15T11:48:47.927Z,5.17
2023-05-15T11:51:22.077Z,5.10
2023-05-15T11:53:56.084Z,5.27
2023-05-15T11:56:28.524Z,4.67
2023-05-15T11:59:00.246Z,4.30
2023-05-15T12:01:28.309Z,4.53
2023-05-15T12:03:55.518Z,4.30
2023-05-15T12:06:23.034Z,4.80
2023-05-15T12:08:53.720Z,5.13
2023-05-15T12:11:25.180Z,5.27
2023-05-15T12:13:56.420Z,5.10
2023-05-15T12:16:27.672Z,5.00
2023-05-15T12:18:56.829Z,5.30
2023-05-15T12:21:23.795Z,5.23
2023-05-15T12:24:06.215Z,4.90
2023-05-15T12:26:33.978Z,4.90
2023-05-15T12:29:01.192Z,5.77
2023-05-15T12:31:28.289Z,4.33
2023-05-15T12:33:56.247Z,4.90
2023-05-15T12:36:23.559Z,5.33
2023-05-15T12:38:50.674Z,4.63
2023-05-15T12:41:19.982Z,4.90
2023-05-15T12:43:46.968Z,4.60
2023-05-15T12:46:15.384Z,5.10
2023-05-15T12:48:42.322Z,5.03
2023-05-15T12:51:09.467Z,4.57
2023-05-15T12:53:39.388Z,4.70
2023-05-15T12:56:07.195Z,5.00
2023-05-15T12:58:34.340Z,5.27
2023-05-15T13:01:03.280Z,5.40
2023-05-15T13:03:30.654Z,5.43
2023-05-15T13:05:57.712Z,5.47
2023-05-15T13:08:24.550Z,5.57
2023-05-15T13:10:59.267Z,5.80
2023-05-15T13:13:43.214Z,5.97
2023-05-15T13:16:24.550Z,5.43
2023-05-15T13:18:51.878Z,5.67
2023-05-15T13:21:19.268Z,5.93
2023-05-15T13:23:46.182Z,6.30
2023-05-15T13:26:13.176Z,6.30
2023-05-15T13:28:40.455Z,5.87
2023-05-15T13:31:07.389Z,5.90
2023-05-15T13:33:35.769Z,5.20
2023-05-15T13:36:03.094Z,4.77
2023-05-15T13:38:30.128Z,4.80
2023-05-15T13:40:57.162Z,4.83
2023-05-15T13:43:26.454Z,4.80
2023-05-15T13:45:54.181Z,4.60
2023-05-15T13:48:21.115Z,4.90
2023-05-15T13:50:48.080Z,5.13
2023-05-15T13:53:18.015Z,4.67
2023-05-15T13:55:46.209Z,5.23
2023-05-15T13:58:13.683Z,6.00
2023-05-15T14:00:43.181Z,5.93
2023-05-15T14:03:12.004Z,6.40
2023-05-15T14:05:41.261Z,6.20
2023-05-15T14:08:08.176Z,6.27
2023-05-15T14:10:37.110Z,5.93
2023-05-15T14:13:04.069Z,6.83
2023-05-15T14:15:30.997Z,5.50
2023-05-15T14:17:57.961Z,5.83
2023-05-15T14:20:25.162Z,5.73
2023-05-15T14:22:52.253Z,5.40
2023-05-15T14:25:19.203Z,5.57
2023-05-15T14:27:46.408Z,5.53
2023-05-15T14:30:14.458Z,5.27
2023-05-15T14:32:41.533Z,5.20
2023-05-15T14:35:08.597Z,5.10
2023-05-15T14:37:36.854Z,5.40
2023-05-15T14:40:05.029Z,5.47
2023-05-15T14:42:32.104Z,5.03
2023-05-15T14:44:59.051Z,5.07
2023-05-15T14:47:28.278Z,5.00
2023-05-15T14:49:55.599Z,4.80
2023-05-15T14:52:22.515Z,4.80
2023-05-15T14:55:00.603Z,5.17
2023-05-15T14:57:34.699Z,4.73
2023-05-15T15:00:01.593Z,5.20
2023-05-15T15:02:28.568Z,5.37
2023-05-15T15:04:55.461Z,5.37
2023-05-15T15:07:22.471Z,6.00
2023-05-15T15:09:49.315Z,5.37
2023-05-15T15:12:16.205Z,4.93
2023-05-15T15:14:43.149Z,5.60
2023-05-15T15:17:10.077Z,5.80
2023-05-15T15:19:36.951Z,4.93
2023-05-15T15:22:03.845Z,5.00
2023-05-15T15:24:30.750Z,5.17
2023-05-15T15:26:57.679Z,5.07
2023-05-15T15:29:24.538Z,5.10
2023-05-15T15:31:51.463Z,5.03
2023-05-15T15:34:18.373Z,6.43
2023-05-15T15:36:45.310Z,7.30
2023-05-15T15:39:13.116Z,7.60
2023-05-15T15:41:40.092Z,6.93
2023-05-15T15:44:07.048Z,6.00
2023-05-15T15:46:33.846Z,5.57
2023-05-15T15:49:01.110Z,5.23
2023-05-15T15:51:28.135Z,5.03
2023-05-15T15:53:55.026Z,5.20
2023-05-15T15:56:22.328Z,4.60
2023-05-15T15:58:49.211Z,4.70
2023-05-15T16:01:16.408Z,4.93
2023-05-15T16:03:43.375Z,5.07
2023-05-15T16:06:10.303Z,4.57
2023-05-15T16:08:37.254Z,4.97
2023-05-15T16:11:04.162Z,4.60
2023-05-15T16:13:32.404Z,6.00
2023-05-15T16:15:59.348Z,4.60
2023-05-15T16:18:26.185Z,5.73
2023-05-15T16:20:53.105Z,6.30
2023-05-15T16:23:21.197Z,6.27
2023-05-15T16:25:48.167Z,6.27
2023-05-15T16:28:15.078Z,6.73
2023-05-15T16:30:48.893Z,6.70
2023-05-15T16:33:19.932Z,6.67
2023-05-15T16:35:47.301Z,6.30
2023-05-15T16:38:14.749Z,6.33
2023-05-15T16:40:41.665Z,5.70
2023-05-15T16:43:08.650Z,5.67
2023-05-15T16:45:35.630Z,6.13
2023-05-15T16:48:02.754Z,6.00
2023-05-15T16:50:35.892Z,5.63
2023-05-15T16:53:03.279Z,5.63
2023-05-15T16:55:30.738Z,5.67
2023-05-15T16:57:57.617Z,5.17
2023-05-15T17:00:24.630Z,6.10
2023-05-15T17:02:51.978Z,6.10
2023-05-15T17:05:19.045Z,5.67
2023-05-15T17:07:45.953Z,5.93
2023-05-15T17:10:13.672Z,5.70
2023-05-15T17:12:40.751Z,6.20
2023-05-15T17:15:08.273Z,5.87
2023-05-15T17:17:35.135Z,5.93
2023-05-15T17:20:03.209Z,5.90
2023-05-15T17:22:30.496Z,6.10
2023-05-15T17:24:57.520Z,5.47
2023-05-15T17:27:24.521Z,5.97
2023-05-15T17:29:51.912Z,5.83
2023-05-15T17:32:19.219Z,6.10
2023-05-15T17:34:46.787Z,6.17
2023-05-15T17:37:14.643Z,5.70
2023-05-15T17:39:41.889Z,5.73
2023-05-15T17:42:08.831Z,6.00
2023-05-15T17:44:35.671Z,5.80
2023-05-15T17:47:02.597Z,5.67
2023-05-15T17:49:29.471Z,5.87
2023-05-15T17:51:56.473Z,6.23
2023-05-15T17:54:23.346Z,6.37
2023-05-15T17:56:50.248Z,10.03
2023-05-15T17:59:17.060Z,9.20
2023-05-15T18:01:43.923Z,8.20
2023-05-15T18:04:10.889Z,6.70
2023-05-15T18:06:38.205Z,6.80
2023-05-15T18:09:05.200Z,6.70
2023-05-15T18:11:32.341Z,6.13
2023-05-15T18:13:59.402Z,7.60
2023-05-15T18:16:26.414Z,7.20
2023-05-15T18:18:53.579Z,7.83
2023-05-15T18:21:20.702Z,7.23
2023-05-15T18:23:47.667Z,5.03
2023-05-15T18:26:14.606Z,5.40
2023-05-15T18:28:41.618Z,5.70
2023-05-15T18:31:08.924Z,5.50
2023-05-15T18:33:36.136Z,5.63
2023-05-15T18:36:05.278Z,5.60
2023-05-15T18:38:33.697Z,5.30
2023-05-15T18:41:00.655Z,6.07
2023-05-15T18:43:27.596Z,5.83
2023-05-15T18:45:54.720Z,5.10
2023-05-15T18:48:21.631Z,5.60
2023-05-15T18:50:48.531Z,5.17
2023-05-15T18:53:15.562Z,5.17
2023-05-15T18:55:42.394Z,5.33
2023-05-15T18:58:09.151Z,5.10
2023-05-15T19:00:38.451Z,5.70
2023-05-15T19:03:08.593Z,4.90
2023-05-15T19:05:35.729Z,5.30
2023-05-15T19:08:03.208Z,5.50
2023-05-15T19:10:30.664Z,4.80
2023-05-15T19:12:58.193Z,5.17
2023-05-15T19:15:25.689Z,5.87
2023-05-15T19:17:52.902Z,5.13
2023-05-15T19:20:20.257Z,5.10
2023-05-15T19:22:47.321Z,5.50
2023-05-15T19:25:14.256Z,5.20
2023-05-15T19:27:41.419Z,5.27
2023-05-15T19:30:09.957Z,5.53
2023-05-15T19:32:37.272Z,5.43
2023-05-15T19:35:04.959Z,5.50
2023-05-15T19:37:31.832Z,5.40
2023-05-15T19:39:58.692Z,5.30
2023-05-15T19:42:26.168Z,5.33
2023-05-15T19:44:53.068Z,5.30
2023-05-15T19:47:20.031Z,5.67
2023-05-15T19:49:46.934Z,5.50
2023-05-15T19:52:13.776Z,6.50
2023-05-15T19:54:40.706Z,5.97
2023-05-15T19:57:07.620Z,6.50
2023-05-15T19:59:34.512Z,6.20
2023-05-15T20:02:02.771Z,6.50
2023-05-15T20:04:29.779Z,6.40
2023-05-15T20:06:56.649Z,7.00
2023-05-15T20:09:29.698Z,6.47
2023-05-15T20:11:56.683Z,6.27
2023-05-15T20:14:23.622Z,6.50
2023-05-15T20:16:50.558Z,6.20
2023-05-15T20:19:21.399Z,7.00
2023-05-15T20:21:48.250Z,7.10
2023-05-15T20:24:17.436Z,6.80
2023-05-15T20:26:45.187Z,6.67
2023-05-15T20:29:12.120Z,6.47
2023-05-15T20:31:40.341Z,7.07
2023-05-15T20:34:08.283Z,6.80
2023-05-15T20:36:35.888Z,6.90
2023-05-15T20:39:05.823Z,7.27
2023-05-15T20:41:33.404Z,7.37
2023-05-15T20:44:00.568Z,7.10
2023-05-15T20:46:29.952Z,7.60
2023-05-15T20:48:57.461Z,7.27
2023-05-15T20:51:24.619Z,8.20
2023-05-15T20:53:51.475Z,8.43
2023-05-15T20:56:18.540Z,9.00
2023-05-15T20:58:45.440Z,8.33
2023-05-15T21:01:12.303Z,8.33
2023-05-15T21:03:39.361Z,8.10
2023-05-15T21:06:06.681Z,7.80
2023-05-15T21:08:33.558Z,7.30
2023-05-15T21:11:00.685Z,7.53
2023-05-15T21:13:28.016Z,7.67
2023-05-15T21:15:55.105Z,7.50
2023-05-15T21:18:22.191Z,7.67
2023-05-15T21:20:49.031Z,7.47
2023-05-15T21:23:16.446Z,7.87
2023-05-15T21:25:43.460Z,7.50
2023-05-15T21:28:10.426Z,7.50
2023-05-15T21:30:37.269Z,8.50
2023-05-15T21:33:04.246Z,7.73
2023-05-15T21:35:31.861Z,7.17
2023-05-15T21:37:58.836Z,7.23
2023-05-15T21:40:25.938Z,7.47
2023-05-15T21:42:52.989Z,7.20
2023-05-15T21:45:19.906Z,7.00
2023-05-15T21:47:46.763Z,7.50
2023-05-15T21:50:13.713Z,7.10
2023-05-15T21:52:40.539Z,7.27
2023-05-15T21:55:08.202Z,7.47
2023-05-15T21:57:35.044Z,8.03
2023-05-15T22:00:02.681Z,7.60
2023-05-15T22:02:32.536Z,7.77
2023-05-15T22:04:59.476Z,7.60
2023-05-15T22:07:26.290Z,6.70
2023-05-15T22:09:53.252Z,7.57
2023-05-15T22:12:20.184Z,7.10
2023-05-15T22:14:58.436Z,7.27
2023-05-15T22:17:29.100Z,7.93
2023-05-15T22:20:06.412Z,7.27
2023-05-15T22:22:35.071Z,7.30
2023-05-15T22:25:02.032Z,6.97
2023-05-15T22:27:28.866Z,8.67
2023-05-15T22:29:55.834Z,8.90
2023-05-15T22:32:22.916Z,7.97
2023-05-15T22:34:49.816Z,8.07
2023-05-15T22:37:16.700Z,7.80
2023-05-15T22:39:44.099Z,7.93
2023-05-15T22:42:11.019Z,8.20
2023-05-15T22:44:38.004Z,8.70
2023-05-15T22:47:05.154Z,7.10
2023-05-15T22:49:32.002Z,7.87
2023-05-15T22:51:58.960Z,7.60
2023-05-15T22:54:25.897Z,7.87
2023-05-15T22:56:52.870Z,8.00
2023-05-15T22:59:20.984Z,8.43
2023-05-15T23:01:49.134Z,8.80
2023-05-15T23:04:17.525Z,9.17
2023-05-15T23:06:44.548Z,9.40
2023-05-15T23:09:11.788Z,9.00
2023-05-15T23:11:38.910Z,9.00
2023-05-15T23:14:05.812Z,8.43
2023-05-15T23:16:32.650Z,8.23
2023-05-15T23:18:59.780Z,8.20
2023-05-15T23:21:27.141Z,8.53
2023-05-15T23:23:54.231Z,8.40
2023-05-15T23:26:21.847Z,8.57
2023-05-15T23:28:48.830Z,8.50
2023-05-15T23:31:15.857Z,8.33
2023-05-15T23:33:42.771Z,8.20
2023-05-15T23:36:09.769Z,8.60
2023-05-15T23:38:36.567Z,8.30
2023-05-15T23:41:03.692Z,7.97
2023-05-15T23:43:30.623Z,8.40
2023-05-15T23:45:57.493Z,8.00
2023-05-15T23:48:24.324Z,8.27
2023-05-15T23:50:52.349Z,8.13
2023-05-15T23:53:19.272Z,7.80
2023-05-15T23:55:46.127Z,8.13
2023-05-15T23:58:13.016Z,8.27
